createdAt,value
2022-11-29T00:01:04.661Z,38.65
2022-11-29T00:03:10.232Z,35.05
2022-11-29T00:05:18.453Z,38.22
2022-11-29T00:07:24.049Z,41.60
2022-11-29T00:09:29.524Z,46.88
2022-11-29T00:11:50.385Z,41.13
2022-11-29T00:13:55.439Z,39.45
2022-11-29T00:16:06.432Z,42.95
2022-11-29T00:18:11.752Z,43.20
2022-11-29T00:20:19.734Z,44.25
2022-11-29T00:24:31.672Z,40.58
2022-11-29T00:26:39.716Z,40.65
2022-11-29T00:28:45.142Z,40.17
2022-11-29T00:30:50.243Z,40.70
2022-11-29T00:32:55.279Z,39.60
2022-11-29T00:35:03.964Z,39.25
2022-11-29T00:37:14.620Z,37.75
2022-11-29T00:39:19.726Z,41.97
2022-11-29T00:41:24.753Z,40.75
2022-11-29T00:43:29.834Z,42.10
2022-11-29T00:45:35.335Z,41.08
2022-11-29T00:47:40.618Z,35.15
2022-11-29T00:49:45.682Z,40.95
2022-11-29T00:51:50.738Z,37.25
2022-11-29T00:53:58.429Z,40.10
2022-11-29T00:56:03.745Z,42.08
2022-11-29T00:58:08.936Z,44.42
2022-11-29T01:00:18.747Z,48.13
2022-11-29T01:02:23.924Z,45.35
2022-11-29T01:04:28.993Z,48.65
2022-11-29T01:06:35.025Z,43.17
2022-11-29T01:08:40.868Z,41.70
2022-11-29T01:10:48.481Z,44.55
2022-11-29T01:12:53.578Z,41.83
2022-11-29T01:14:58.618Z,41.47
2022-11-29T01:17:03.759Z,44.63
2022-11-29T01:19:09.524Z,40.38
2022-11-29T01:21:18.460Z,48.97
2022-11-29T01:23:23.467Z,42.53
2022-11-29T01:25:29.437Z,45.65
2022-11-29T01:27:39.769Z,44.25
2022-11-29T01:29:44.998Z,43.83
2022-11-29T01:31:50.054Z,42.55
2022-11-29T01:33:57.529Z,38.47
2022-11-29T01:36:02.637Z,50.53
2022-11-29T01:38:07.605Z,41.30
2022-11-29T01:40:14.315Z,39.53
2022-11-29T01:42:19.478Z,42.85
2022-11-29T01:45:17.370Z,40.10
2022-11-29T01:47:23.569Z,37.75
2022-11-29T01:49:37.668Z,37.15
2022-11-29T01:51:54.489Z,34.65
2022-11-29T01:53:59.856Z,35.47
2022-11-29T01:56:07.771Z,36.40
2022-11-29T02:00:22.797Z,35.30
2022-11-29T02:02:33.858Z,38.65
2022-11-29T02:04:40.623Z,42.60
2022-11-29T02:06:46.054Z,43.03
2022-11-29T02:08:51.113Z,39.85
2022-11-29T02:11:28.996Z,35.80
2022-11-29T02:13:42.873Z,38.38
2022-11-29T02:15:57.752Z,38.85
2022-11-29T02:18:10.750Z,33.70
2022-11-29T02:20:56.529Z,37.97
2022-11-29T02:23:20.423Z,32.78
2022-11-29T02:25:47.297Z,34.97
2022-11-29T02:28:48.034Z,31.42
2022-11-29T02:31:43.408Z,32.17
2022-11-29T02:34:20.905Z,30.75
2022-11-29T02:37:11.400Z,27.02
2022-11-29T02:39:55.503Z,25.90
2022-11-29T02:42:55.588Z,28.75
2022-11-29T02:45:13.071Z,29.27
2022-11-29T02:47:30.527Z,27.77
2022-11-29T02:50:01.764Z,26.30
2022-11-29T02:52:16.872Z,27.27
2022-11-29T02:54:28.517Z,25.40
2022-11-29T02:56:45.101Z,29.20
2022-11-29T02:58:59.653Z,33.17
2022-11-29T03:01:14.203Z,32.10
2022-11-29T03:03:28.116Z,28.20
2022-11-29T03:05:49.469Z,28.58
2022-11-29T03:08:06.800Z,31.00
2022-11-29T03:10:25.678Z,27.50
2022-11-29T03:12:40.349Z,24.38
2022-11-29T03:14:59.097Z,22.88
2022-11-29T03:17:19.720Z,22.20
2022-11-29T03:20:03.754Z,22.90
2022-11-29T03:22:20.060Z,24.67
2022-11-29T03:24:34.254Z,24.88
2022-11-29T03:26:47.162Z,28.30
2022-11-29T03:29:07.500Z,24.73
2022-11-29T03:31:19.592Z,25.55
2022-11-29T03:33:36.288Z,26.55
2022-11-29T03:39:20.416Z,27.13
2022-11-29T03:41:33.740Z,23.35
2022-11-29T03:43:46.984Z,25.55
2022-11-29T03:46:00.775Z,25.00
2022-11-29T03:48:12.912Z,26.65
2022-11-29T03:50:26.353Z,29.45
2022-11-29T03:52:38.389Z,25.55
2022-11-29T03:55:01.951Z,25.00
2022-11-29T03:57:09.098Z,26.63
2022-11-29T03:59:29.823Z,27.20
2022-11-29T04:02:26.642Z,26.15
2022-11-29T04:05:18.377Z,27.95
2022-11-29T04:07:46.149Z,27.27
2022-11-29T04:13:32.069Z,24.35
2022-11-29T04:16:25.551Z,28.50
2022-11-29T04:19:09.864Z,24.02
2022-11-29T04:21:36.706Z,25.70
2022-11-29T04:24:35.106Z,25.98
2022-11-29T04:27:27.573Z,23.70
2022-11-29T04:30:03.977Z,26.40
2022-11-29T04:32:59.999Z,28.57
2022-11-29T04:35:48.432Z,27.47
2022-11-29T04:38:30.568Z,25.35
2022-11-29T04:41:05.118Z,28.95
2022-11-29T04:43:36.359Z,27.17
2022-11-29T04:46:16.759Z,30.17
2022-11-29T04:49:05.986Z,24.00
2022-11-29T04:51:24.357Z,25.25
2022-11-29T04:53:47.608Z,29.02
2022-11-29T04:56:06.954Z,27.73
2022-11-29T04:58:26.967Z,28.75
2022-11-29T05:00:38.759Z,22.58
2022-11-29T05:02:53.942Z,26.02
2022-11-29T05:05:08.832Z,26.73
2022-11-29T05:07:24.653Z,26.33
2022-11-29T05:09:44.104Z,27.77
2022-11-29T05:12:02.218Z,31.42
2022-11-29T05:14:20.492Z,28.55
2022-11-29T05:19:25.474Z,26.00
2022-11-29T05:21:44.806Z,27.50
2022-11-29T05:24:03.656Z,31.55
2022-11-29T05:26:16.703Z,22.90
2022-11-29T05:28:30.297Z,23.60
2022-11-29T05:31:21.550Z,28.00
2022-11-29T05:33:51.884Z,29.33
2022-11-29T05:36:04.976Z,23.38
2022-11-29T05:38:27.011Z,25.65
2022-11-29T05:40:49.042Z,24.23
2022-11-29T05:43:24.993Z,25.02
2022-11-29T05:45:39.849Z,27.73
2022-11-29T05:47:55.273Z,26.58
2022-11-29T05:50:11.624Z,28.30
2022-11-29T05:52:33.009Z,24.73
2022-11-29T05:54:44.006Z,28.80
2022-11-29T05:57:00.116Z,26.80
2022-11-29T05:59:11.155Z,25.85
2022-11-29T06:01:25.874Z,27.45
2022-11-29T06:03:39.288Z,32.05
2022-11-29T06:05:53.059Z,28.38
2022-11-29T06:08:07.076Z,31.65
2022-11-29T06:10:18.411Z,30.98
2022-11-29T06:12:26.961Z,27.48
2022-11-29T06:15:19.463Z,29.48
2022-11-29T06:17:55.754Z,31.77
2022-11-29T06:20:31.622Z,26.08
2022-11-29T06:23:04.728Z,26.55
2022-11-29T06:25:36.465Z,29.33
2022-11-29T06:28:11.001Z,33.60
2022-11-29T06:30:20.302Z,30.10
2022-11-29T06:32:37.493Z,35.15
2022-11-29T06:34:55.101Z,31.42
2022-11-29T06:37:08.230Z,31.73
2022-11-29T06:39:14.603Z,34.20
2022-11-29T06:41:25.338Z,34.38
2022-11-29T06:43:31.727Z,38.08
2022-11-29T06:45:38.081Z,32.33
2022-11-29T06:47:49.916Z,33.03
2022-11-29T06:50:05.367Z,32.78
2022-11-29T06:52:26.629Z,31.02
2022-11-29T06:54:52.610Z,39.72
2022-11-29T06:57:09.393Z,33.50
2022-11-29T06:59:35.735Z,33.77
2022-11-29T07:01:48.480Z,34.45
2022-11-29T07:04:23.269Z,33.85
2022-11-29T07:06:37.109Z,33.15
2022-11-29T07:08:43.338Z,36.05
2022-11-29T07:10:53.129Z,34.28
2022-11-29T07:12:59.546Z,31.90
2022-11-29T07:15:06.246Z,37.75
2022-11-29T07:17:24.020Z,36.00
2022-11-29T07:19:43.143Z,33.70
2022-11-29T07:22:05.777Z,34.97
2022-11-29T07:24:23.302Z,36.13
2022-11-29T07:26:37.356Z,38.60
2022-11-29T07:28:59.682Z,32.35
2022-11-29T07:31:13.583Z,35.53
2022-11-29T07:33:30.521Z,33.20
2022-11-29T07:35:44.878Z,33.45
2022-11-29T07:38:09.970Z,34.25
2022-11-29T07:40:19.717Z,37.85
2022-11-29T07:42:32.946Z,34.15
2022-11-29T07:44:49.261Z,35.40
2022-11-29T07:46:54.367Z,35.22
2022-11-29T07:49:00.044Z,32.58
2022-11-29T07:51:08.244Z,34.90
2022-11-29T07:53:19.682Z,33.67
2022-11-29T07:55:29.652Z,31.90
2022-11-29T07:57:36.654Z,35.70
2022-11-29T07:59:42.159Z,32.03
2022-11-29T08:01:47.631Z,33.33
2022-11-29T08:03:52.766Z,31.67
2022-11-29T08:05:58.489Z,30.00
2022-11-29T08:08:03.622Z,30.42
2022-11-29T08:10:15.886Z,35.28
2022-11-29T08:12:21.271Z,32.50
2022-11-29T08:14:26.436Z,31.88
2022-11-29T08:16:32.087Z,32.13
2022-11-29T08:18:39.752Z,38.15
2022-11-29T08:20:46.339Z,34.95
2022-11-29T08:22:58.465Z,33.10
2022-11-29T08:25:03.675Z,31.35
2022-11-29T08:27:12.338Z,34.63
2022-11-29T08:29:18.006Z,32.85
2022-11-29T08:31:24.095Z,32.58
2022-11-29T08:33:34.002Z,28.40
2022-11-29T08:35:40.355Z,30.27
2022-11-29T08:37:45.453Z,33.35
2022-11-29T08:39:50.626Z,27.63
2022-11-29T08:41:55.690Z,31.35
2022-11-29T08:44:04.093Z,28.60
2022-11-29T08:46:12.509Z,31.42
2022-11-29T08:48:19.259Z,35.33
2022-11-29T08:50:25.669Z,37.53
2022-11-29T08:52:44.469Z,29.98
2022-11-29T08:54:49.559Z,26.80
2022-11-29T08:59:22.886Z,29.02
2022-11-29T09:01:29.239Z,30.33
2022-11-29T09:03:51.747Z,28.48
2022-11-29T09:05:57.621Z,24.08
2022-11-29T09:08:03.096Z,25.90
2022-11-29T09:10:11.749Z,24.67
2022-11-29T09:12:16.838Z,24.95
2022-11-29T09:14:24.898Z,25.80
2022-11-29T09:16:33.156Z,25.02
2022-11-29T09:18:39.757Z,23.45
2022-11-29T09:20:46.519Z,22.40
2022-11-29T09:22:51.577Z,27.08
2022-11-29T09:24:57.725Z,25.73
2022-11-29T09:27:03.078Z,25.33
2022-11-29T09:29:10.371Z,22.88
2022-11-29T09:31:20.499Z,28.02
2022-11-29T09:33:28.017Z,25.17
2022-11-29T09:35:36.035Z,23.87
2022-11-29T09:37:45.760Z,25.15
2022-11-29T09:39:50.847Z,24.65
2022-11-29T09:42:34.531Z,22.88
2022-11-29T09:44:53.877Z,25.23
2022-11-29T09:47:18.422Z,25.65
2022-11-29T09:49:52.426Z,25.50
2022-11-29T09:52:14.438Z,24.20
2022-11-29T09:54:32.224Z,25.10
2022-11-29T09:58:52.365Z,22.63
2022-11-29T10:01:06.157Z,27.88
2022-11-29T10:03:25.816Z,22.70
2022-11-29T10:05:38.582Z,26.02
2022-11-29T10:07:51.492Z,22.73
2022-11-29T10:10:04.720Z,24.80
2022-11-29T10:12:19.929Z,25.58
2022-11-29T10:14:31.612Z,27.88
2022-11-29T10:16:47.238Z,26.40
2022-11-29T10:19:04.725Z,27.13
2022-11-29T10:21:20.899Z,26.92
2022-11-29T10:23:32.098Z,24.42
2022-11-29T10:25:45.157Z,24.52
2022-11-29T10:27:51.044Z,24.13
2022-11-29T10:29:56.847Z,27.90
2022-11-29T10:32:10.005Z,30.33
2022-11-29T10:34:21.169Z,27.77
2022-11-29T10:36:33.218Z,27.08
2022-11-29T10:38:38.278Z,29.52
2022-11-29T10:40:50.018Z,30.83
2022-11-29T10:42:55.710Z,33.30
2022-11-29T10:45:02.539Z,30.65
2022-11-29T10:47:11.087Z,33.97
2022-11-29T10:49:23.489Z,33.70
2022-11-29T10:51:29.186Z,35.95
2022-11-29T10:53:39.861Z,33.22
2022-11-29T10:55:51.823Z,37.03
2022-11-29T10:58:17.163Z,37.17
2022-11-29T11:00:22.925Z,34.00
2022-11-29T11:02:28.280Z,36.47
2022-11-29T11:04:46.159Z,39.65
2022-11-29T11:06:56.290Z,41.90
2022-11-29T11:09:21.519Z,39.03
2022-11-29T11:11:31.020Z,40.67
2022-11-29T11:13:38.020Z,40.97
2022-11-29T11:15:43.079Z,36.53
2022-11-29T11:18:01.021Z,37.97
2022-11-29T11:20:22.803Z,37.80
2022-11-29T11:22:30.798Z,37.17
2022-11-29T11:26:47.211Z,34.17
2022-11-29T11:28:57.982Z,37.95
2022-11-29T11:31:08.538Z,37.15
2022-11-29T11:33:23.701Z,35.60
2022-11-29T11:35:31.411Z,34.65
2022-11-29T11:37:37.299Z,41.33
2022-11-29T11:39:42.705Z,42.35
2022-11-29T11:42:01.029Z,40.90
2022-11-29T11:44:19.977Z,39.70
2022-11-29T11:46:50.325Z,35.25
2022-11-29T11:48:55.493Z,35.40
2022-11-29T11:51:04.577Z,40.75
2022-11-29T11:53:22.729Z,39.85
2022-11-29T11:55:36.057Z,40.05
2022-11-29T11:57:41.152Z,39.65
2022-11-29T11:59:50.994Z,42.00
2022-11-29T12:01:56.418Z,38.60
2022-11-29T12:04:08.517Z,39.42
2022-11-29T12:06:42.264Z,46.20
2022-11-29T12:08:50.294Z,37.95
2022-11-29T12:11:07.068Z,42.38
2022-11-29T12:13:21.153Z,45.38
2022-11-29T12:15:32.349Z,43.13
2022-11-29T12:17:41.672Z,46.55
2022-11-29T12:19:59.938Z,41.78
2022-11-29T12:22:16.426Z,44.13
2022-11-29T12:24:29.359Z,45.55
2022-11-29T12:26:58.342Z,42.55
2022-11-29T12:29:06.896Z,46.20
2022-11-29T12:31:35.923Z,45.20
2022-11-29T12:33:52.685Z,46.55
2022-11-29T12:36:18.469Z,46.33
2022-11-29T12:39:04.575Z,47.85
2022-11-29T12:41:29.173Z,46.55
2022-11-29T12:43:50.202Z,45.97
2022-11-29T12:46:06.693Z,46.92
2022-11-29T12:48:28.903Z,49.00
2022-11-29T12:50:49.067Z,55.15
2022-11-29T12:53:11.012Z,55.67
2022-11-29T12:55:27.174Z,52.42
2022-11-29T12:57:42.837Z,54.05
2022-11-29T13:00:03.965Z,48.83
2022-11-29T13:02:28.561Z,56.63
2022-11-29T13:04:43.092Z,51.75
2022-11-29T13:06:58.771Z,44.47
2022-11-29T13:09:38.805Z,52.55
2022-11-29T13:11:53.958Z,54.88
2022-11-29T13:14:41.053Z,47.03
2022-11-29T13:17:00.269Z,51.25
2022-11-29T13:19:14.804Z,52.38
2022-11-29T13:21:25.380Z,51.25
2022-11-29T13:24:07.512Z,53.88
2022-11-29T13:26:09.002Z,46.10
2022-11-29T13:28:25.632Z,45.42
2022-11-29T13:30:30.918Z,55.92
2022-11-29T13:32:39.975Z,50.75
2022-11-29T13:37:09.823Z,60.47
2022-11-29T13:39:34.938Z,55.45
2022-11-29T13:41:50.779Z,57.72
2022-11-29T13:44:05.778Z,57.08
2022-11-29T13:46:26.450Z,55.10
2022-11-29T13:48:39.745Z,60.28
2022-11-29T13:50:47.297Z,55.30
2022-11-29T13:52:52.626Z,52.72
2022-11-29T13:55:18.569Z,54.53
2022-11-29T13:57:24.165Z,61.30
2022-11-29T13:59:36.613Z,52.63
2022-11-29T14:01:51.747Z,51.65
2022-11-29T14:04:17.420Z,48.60
2022-11-29T14:06:24.837Z,60.95
2022-11-29T14:08:54.683Z,51.70
2022-11-29T14:11:03.891Z,58.10
2022-11-29T14:13:16.061Z,60.90
2022-11-29T14:15:33.304Z,49.42
2022-11-29T14:17:53.641Z,55.40
2022-11-29T14:20:47.944Z,54.78
2022-11-29T14:23:20.789Z,51.70
2022-11-29T14:25:50.549Z,53.15
2022-11-29T14:28:33.433Z,62.17
2022-11-29T14:30:53.758Z,58.08
2022-11-29T14:33:06.841Z,65.38
2022-11-29T14:35:22.995Z,55.40
2022-11-29T14:37:57.992Z,58.10
2022-11-29T14:40:22.569Z,54.67
2022-11-29T14:42:34.262Z,56.75
2022-11-29T14:44:47.693Z,57.90
2022-11-29T14:47:07.888Z,53.35
2022-11-29T14:49:25.605Z,56.88
2022-11-29T14:53:40.479Z,58.75
2022-11-29T14:55:48.970Z,49.65
2022-11-29T14:58:21.119Z,58.20
2022-11-29T15:00:29.245Z,55.00
2022-11-29T15:02:40.241Z,60.00
2022-11-29T15:04:46.014Z,57.50
2022-11-29T15:06:53.262Z,58.63
2022-11-29T15:09:06.601Z,66.22
2022-11-29T15:11:30.115Z,51.30
2022-11-29T15:13:38.267Z,50.70
2022-11-29T15:16:10.299Z,54.55
2022-11-29T15:18:31.695Z,53.25
2022-11-29T15:20:55.060Z,52.53
2022-11-29T15:23:04.002Z,59.78
2022-11-29T15:25:20.106Z,57.67
2022-11-29T15:27:28.132Z,49.63
2022-11-29T15:29:34.652Z,52.33
2022-11-29T15:31:40.078Z,51.53
2022-11-29T15:33:48.717Z,57.78
2022-11-29T15:35:56.640Z,56.65
2022-11-29T15:40:13.644Z,55.53
2022-11-29T15:42:19.185Z,55.17
2022-11-29T15:44:28.417Z,53.92
2022-11-29T15:46:36.491Z,52.15
2022-11-29T15:48:41.550Z,43.80
2022-11-29T15:50:57.039Z,53.42
2022-11-29T15:53:09.012Z,47.65
2022-11-29T15:55:17.137Z,48.42
2022-11-29T15:57:27.591Z,52.92
2022-11-29T15:59:41.346Z,51.50
2022-11-29T16:01:47.961Z,48.80
2022-11-29T16:03:58.352Z,57.25
2022-11-29T16:06:27.992Z,60.03
2022-11-29T16:08:39.111Z,63.47
2022-11-29T16:10:50.400Z,65.15
2022-11-29T16:12:57.826Z,66.43
2022-11-29T16:15:05.523Z,61.58
2022-11-29T16:17:11.417Z,60.15
2022-11-29T16:19:34.876Z,59.35
2022-11-29T16:21:40.887Z,55.20
2022-11-29T16:23:46.885Z,52.17
2022-11-29T16:26:01.218Z,54.00
2022-11-29T16:28:07.312Z,51.13
2022-11-29T16:30:24.882Z,60.95
2022-11-29T16:32:33.680Z,60.55
2022-11-29T16:34:39.010Z,54.28
2022-11-29T16:36:44.333Z,54.05
2022-11-29T16:38:52.070Z,53.33
2022-11-29T16:41:06.997Z,55.80
2022-11-29T16:43:26.138Z,51.97
2022-11-29T16:45:41.241Z,54.03
2022-11-29T16:47:58.253Z,51.70
2022-11-29T16:50:24.948Z,53.78
2022-11-29T16:52:32.007Z,90.55
2022-11-29T16:56:43.354Z,48.10
2022-11-29T16:59:24.829Z,56.30
2022-11-29T17:01:27.931Z,53.08
2022-11-29T17:03:33.038Z,50.50
2022-11-29T17:05:44.403Z,47.15
2022-11-29T17:07:50.762Z,52.85
2022-11-29T17:09:56.448Z,51.30
2022-11-29T17:12:03.407Z,57.83
2022-11-29T17:14:08.583Z,55.55
2022-11-29T17:16:17.699Z,50.10
2022-11-29T17:18:25.336Z,54.03
2022-11-29T17:20:31.290Z,55.45
2022-11-29T17:22:37.290Z,65.68
2022-11-29T17:24:47.687Z,56.03
2022-11-29T17:26:54.134Z,58.20
2022-11-29T17:28:59.501Z,59.78
2022-11-29T17:31:12.227Z,59.55
2022-11-29T17:33:17.269Z,69.80
2022-11-29T17:35:26.090Z,60.30
2022-11-29T17:37:32.412Z,61.65
2022-11-29T17:39:37.572Z,69.50
2022-11-29T17:41:43.022Z,66.22
2022-11-29T17:43:48.146Z,57.25
2022-11-29T17:45:54.316Z,77.38
2022-11-29T17:48:01.412Z,85.28
2022-11-29T17:50:07.469Z,79.90
2022-11-29T17:52:15.426Z,75.22
2022-11-29T17:54:20.942Z,87.63
2022-11-29T17:56:30.533Z,88.88
2022-11-29T17:58:35.610Z,89.68
2022-11-29T18:00:41.110Z,90.93
2022-11-29T18:02:46.262Z,75.13
2022-11-29T18:04:51.378Z,65.78
2022-11-29T18:06:57.112Z,87.82
2022-11-29T18:09:09.437Z,76.75
2022-11-29T18:11:18.237Z,66.43
2022-11-29T18:13:23.313Z,66.22
2022-11-29T18:15:28.567Z,56.63
2022-11-29T18:17:34.198Z,55.83
2022-11-29T18:19:39.774Z,58.10
2022-11-29T18:21:45.322Z,69.25
2022-11-29T18:23:50.709Z,64.70
2022-11-29T18:26:08.856Z,77.95
2022-11-29T18:28:14.123Z,88.57
2022-11-29T18:30:19.725Z,62.72
2022-11-29T18:32:24.781Z,72.00
2022-11-29T18:34:29.776Z,69.47
2022-11-29T18:36:38.004Z,72.60
2022-11-29T18:40:49.262Z,63.60
2022-11-29T18:42:56.973Z,70.97
2022-11-29T18:45:02.121Z,78.95
2022-11-29T18:47:08.957Z,93.93
2022-11-29T18:49:17.101Z,60.58
2022-11-29T18:51:23.203Z,75.05
2022-11-29T18:53:28.405Z,63.88
2022-11-29T18:55:33.756Z,64.88
2022-11-29T18:57:39.075Z,67.03
2022-11-29T18:59:46.741Z,108.95
2022-11-29T19:01:52.361Z,85.35
2022-11-29T19:04:00.740Z,61.88
2022-11-29T19:06:07.977Z,57.58
2022-11-29T19:08:13.134Z,63.13
2022-11-29T19:10:18.368Z,52.33
2022-11-29T19:12:23.628Z,51.80
2022-11-29T19:14:30.557Z,63.92
2022-11-29T19:16:39.125Z,60.15
2022-11-29T19:18:44.197Z,64.22
2022-11-29T19:20:49.448Z,69.47
2022-11-29T19:23:00.185Z,63.35
2022-11-29T19:25:05.591Z,52.72
2022-11-29T19:27:10.755Z,61.92
2022-11-29T19:29:16.488Z,54.17
2022-11-29T19:31:24.690Z,65.00
2022-11-29T19:33:32.493Z,62.40
2022-11-29T19:35:38.065Z,59.85
2022-11-29T19:37:43.123Z,46.30
2022-11-29T19:39:48.510Z,50.80
2022-11-29T19:41:53.696Z,45.38
2022-11-29T19:44:00.254Z,55.97
2022-11-29T19:46:11.210Z,52.40
2022-11-29T19:48:16.282Z,53.47
2022-11-29T19:50:24.162Z,57.20
2022-11-29T19:52:29.729Z,61.67
2022-11-29T19:54:34.784Z,56.00
2022-11-29T19:56:40.329Z,52.42
2022-11-29T19:58:45.876Z,50.53
2022-11-29T20:00:51.137Z,58.30
2022-11-29T20:02:56.346Z,52.80
2022-11-29T20:05:01.577Z,60.65
2022-11-29T20:07:09.172Z,49.97
2022-11-29T20:09:16.251Z,52.42
2022-11-29T20:11:24.112Z,66.85
2022-11-29T20:15:34.355Z,52.78
2022-11-29T20:17:39.668Z,56.88
2022-11-29T20:19:45.161Z,50.00
2022-11-29T20:21:52.111Z,53.90
2022-11-29T20:24:03.030Z,61.83
2022-11-29T20:26:10.000Z,54.83
2022-11-29T20:28:15.040Z,57.40
2022-11-29T20:30:20.585Z,66.75
2022-11-29T20:32:26.003Z,77.20
2022-11-29T20:34:31.467Z,59.22
2022-11-29T20:36:47.669Z,56.17
2022-11-29T20:39:06.979Z,108.38
2022-11-29T20:41:19.485Z,74.15
2022-11-29T20:43:32.056Z,55.47
2022-11-29T20:45:39.040Z,46.55
2022-11-29T20:47:54.021Z,55.78
2022-11-29T20:49:59.478Z,41.53
2022-11-29T20:52:08.405Z,52.00
2022-11-29T20:54:18.276Z,50.55
2022-11-29T20:56:23.548Z,49.20
2022-11-29T20:58:30.087Z,50.78
2022-11-29T21:00:35.718Z,46.15
2022-11-29T21:02:41.252Z,46.55
2022-11-29T21:04:46.873Z,54.10
2022-11-29T21:06:52.036Z,61.90
2022-11-29T21:08:58.915Z,52.65
2022-11-29T21:11:10.697Z,47.72
2022-11-29T21:13:18.071Z,63.50
2022-11-29T21:15:25.201Z,58.22
2022-11-29T21:17:33.998Z,68.97
2022-11-29T21:19:42.097Z,51.78
2022-11-29T21:22:05.849Z,50.47
2022-11-29T21:24:22.372Z,44.10
2022-11-29T21:26:41.511Z,57.20
2022-11-29T21:29:01.485Z,56.10
2022-11-29T21:31:07.955Z,56.00
2022-11-29T21:33:14.094Z,61.00
2022-11-29T21:35:20.039Z,55.80
2022-11-29T21:37:31.486Z,50.25
2022-11-29T21:39:38.053Z,58.50
2022-11-29T21:41:45.991Z,47.50
2022-11-29T21:44:06.141Z,58.05
2022-11-29T21:46:14.352Z,53.92
2022-11-29T21:48:31.879Z,47.83
2022-11-29T21:52:42.023Z,67.95
2022-11-29T21:54:47.422Z,51.50
2022-11-29T21:56:55.137Z,45.55
2022-11-29T21:59:00.302Z,53.90
2022-11-29T22:01:14.073Z,46.13
2022-11-29T22:03:19.159Z,57.83
2022-11-29T22:05:24.184Z,60.08
2022-11-29T22:07:30.171Z,51.83
2022-11-29T22:09:35.247Z,42.85
2022-11-29T22:11:40.768Z,53.60
2022-11-29T22:14:01.146Z,45.05
2022-11-29T22:16:12.011Z,47.13
2022-11-29T22:18:17.055Z,47.22
2022-11-29T22:20:22.140Z,50.22
2022-11-29T22:22:28.401Z,53.88
2022-11-29T22:24:39.269Z,49.17
2022-11-29T22:26:45.197Z,46.03
2022-11-29T22:28:53.285Z,37.10
2022-11-29T22:31:05.798Z,39.70
2022-11-29T22:33:13.449Z,47.42
2022-11-29T22:35:19.229Z,51.38
2022-11-29T22:37:24.303Z,47.38
2022-11-29T22:39:29.789Z,46.15
2022-11-29T22:41:36.263Z,43.40
2022-11-29T22:43:44.157Z,50.08
2022-11-29T22:45:51.765Z,50.28
2022-11-29T22:47:57.073Z,51.58
2022-11-29T22:50:02.175Z,52.85
2022-11-29T22:52:07.773Z,51.05
2022-11-29T22:54:15.507Z,58.03
2022-11-29T22:56:21.344Z,119.07
2022-11-29T22:58:26.594Z,65.60
2022-11-29T23:00:32.547Z,47.28
2022-11-29T23:02:40.600Z,68.88
2022-11-29T23:04:46.015Z,66.80
2022-11-29T23:06:51.972Z,56.50
2022-11-29T23:09:00.161Z,73.13
2022-11-29T23:11:06.967Z,116.25
2022-11-29T23:13:11.981Z,63.95
2022-11-29T23:15:17.176Z,88.18
2022-11-29T23:17:22.688Z,105.30
2022-11-29T23:19:31.107Z,65.13
2022-11-29T23:21:38.935Z,48.10
2022-11-29T23:23:44.984Z,40.70
2022-11-29T23:25:52.072Z,43.00
2022-11-29T23:27:57.870Z,45.63
2022-11-29T23:30:03.505Z,50.47
2022-11-29T23:32:10.251Z,55.95
2022-11-29T23:34:16.034Z,53.28
2022-11-29T23:36:24.436Z,55.88
2022-11-29T23:38:29.490Z,47.20
2022-11-29T23:40:34.864Z,53.65
2022-11-29T23:42:44.994Z,46.97
2022-11-29T23:44:52.073Z,53.70
2022-11-29T23:46:57.574Z,46.63
2022-11-29T23:49:03.813Z,49.55
2022-11-29T23:51:09.833Z,47.58
2022-11-29T23:53:20.447Z,41.28
2022-11-29T23:55:26.853Z,180.88
2022-11-29T23:57:33.392Z,49.17
2022-11-29T23:59:38.477Z,53.70
